Time;durP1;ratioP1;P1;durP2;ratioP2;P2;SDS_P1;SDS_P2;PMS_P1;PMS_P2;Temp;Humidity;BMP_temperature;BMP_pressure;BME280_temperature;BME280_humidity;BME280_pressure;Samples;Min_cycle;Max_cycle;Signal;HPM_P1;HPM_P2
2023/10/25 00:00:43;;;;;;;14.30;12.90;;;10.30;99.90;;;;;;5039059;28;20167;-63
2023/10/25 00:03:12;;;;;;;13.30;12.00;;;10.30;99.90;;;;;;5052498;28;20524;-64
2023/10/25 00:05:38;;;;;;;12.83;11.10;;;10.30;99.90;;;;;;5053723;28;20186;-63
2023/10/25 00:08:03;;;;;;;14.50;11.97;;;10.20;99.90;;;;;;5054209;28;20388;-64
2023/10/25 00:10:29;;;;;;;13.33;10.57;;;10.10;99.90;;;;;;5054569;28;20175;-64
2023/10/25 00:12:55;;;;;;;14.00;12.00;;;10.10;99.90;;;;;;5054385;28;20514;-63
2023/10/25 00:15:21;;;;;;;13.23;11.73;;;10.10;99.90;;;;;;5053758;28;20532;-63
2023/10/25 00:17:48;;;;;;;13.80;12.23;;;10.00;99.90;;;;;;5054036;28;20277;-63
2023/10/25 00:20:14;;;;;;;15.60;12.80;;;9.90;99.90;;;;;;5053777;28;20367;-63
2023/10/25 00:22:40;;;;;;;13.10;11.70;;;9.90;99.90;;;;;;5053916;28;20368;-64
2023/10/25 00:25:06;;;;;;;13.90;12.57;;;9.90;99.90;;;;;;5052395;28;20391;-63
2023/10/25 00:27:32;;;;;;;15.40;12.30;;;9.90;99.90;;;;;;5052523;28;20236;-63
2023/10/25 00:29:57;;;;;;;15.90;11.50;;;9.80;99.90;;;;;;5053510;28;20829;-64
2023/10/25 00:32:23;;;;;;;13.30;12.00;;;9.80;99.90;;;;;;5044190;28;20176;-63
2023/10/25 00:34:49;;;;;;;15.57;11.63;;;9.70;99.90;;;;;;5032268;28;20631;-64
2023/10/25 00:37:14;;;;;;;14.07;11.97;;;9.70;99.90;;;;;;5033596;28;20619;-63
2023/10/25 00:39:40;;;;;;;15.40;11.40;;;9.70;99.90;;;;;;5033382;28;20167;-63
2023/10/25 00:42:06;;;;;;;15.13;11.07;;;9.60;99.90;;;;;;5032815;28;20245;-64
2023/10/25 00:44:32;;;;;;;13.97;12.50;;;9.60;99.90;;;;;;5033158;28;20171;-66
2023/10/25 00:46:59;;;;;;;13.40;11.47;;;9.50;99.90;;;;;;5031774;28;20872;-64
2023/10/25 00:49:25;;;;;;;14.97;11.97;;;9.50;99.90;;;;;;5034125;28;20452;-63
2023/10/25 00:51:50;;;;;;;14.53;12.10;;;9.50;99.90;;;;;;5033902;28;20777;-63
2023/10/25 00:54:17;;;;;;;16.90;13.67;;;9.50;99.90;;;;;;5033585;28;20456;-63
2023/10/25 00:56:42;;;;;;;14.60;12.90;;;9.50;99.90;;;;;;5032245;28;20914;-64
2023/10/25 00:59:11;;;;;;;14.80;11.20;;;9.40;99.90;;;;;;5032000;28;20458;-63
2023/10/25 01:01:37;;;;;;;14.83;12.27;;;9.40;99.90;;;;;;5033800;28;20171;-63
2023/10/25 01:04:03;;;;;;;14.93;12.80;;;9.30;99.90;;;;;;5033536;28;20405;-64
2023/10/25 01:06:29;;;;;;;21.37;14.20;;;9.40;99.90;;;;;;5032561;28;20816;-63
2023/10/25 01:08:55;;;;;;;22.53;15.43;;;9.40;99.90;;;;;;5033745;28;20200;-63
2023/10/25 01:11:20;;;;;;;18.60;16.37;;;9.60;99.90;;;;;;5033399;28;20170;-63
2023/10/25 01:13:46;;;;;;;19.67;15.90;;;9.60;99.90;;;;;;5031977;28;20268;-63
2023/10/25 01:16:12;;;;;;;20.90;16.27;;;9.70;99.90;;;;;;5031159;28;20409;-64
2023/10/25 01:18:38;;;;;;;20.20;16.07;;;9.80;99.90;;;;;;5032007;28;20294;-63
2023/10/25 01:21:04;;;;;;;25.47;16.10;;;9.90;99.90;;;;;;5033415;28;20247;-63
2023/10/25 01:23:30;;;;;;;20.60;15.57;;;9.90;99.90;;;;;;5033234;28;20164;-67
2023/10/25 01:25:56;;;;;;;23.53;16.17;;;9.90;99.90;;;;;;5032559;28;20725;-63
2023/10/25 01:28:22;;;;;;;21.67;16.10;;;9.90;99.90;;;;;;5033280;28;20568;-64
2023/10/25 01:30:47;;;;;;;20.00;16.00;;;10.00;99.90;;;;;;5033273;28;20164;-63
2023/10/25 01:33:13;;;;;;;20.07;15.50;;;10.00;99.90;;;;;;5032593;28;20369;-64
2023/10/25 01:35:39;;;;;;;20.13;15.97;;;10.00;99.90;;;;;;5032463;28;20191;-63
2023/10/25 01:38:04;;;;;;;19.00;14.70;;;10.00;99.90;;;;;;5033226;28;20253;-63
2023/10/25 01:40:30;;;;;;;20.63;15.40;;;10.00;99.90;;;;;;5033127;28;20179;-65
2023/10/25 01:42:56;;;;;;;20.60;14.40;;;9.90;99.90;;;;;;5032100;28;20580;-63
2023/10/25 01:45:27;;;;;;;22.63;17.47;;;9.90;99.90;;;;;;5032603;28;20633;-63
2023/10/25 01:47:53;;;;;;;25.13;17.57;;;9.90;99.90;;;;;;5051423;28;20198;-63
2023/10/25 01:50:19;;;;;;;18.43;14.23;;;9.90;99.90;;;;;;5051175;28;20390;-64
2023/10/25 01:52:45;;;;;;;20.97;15.40;;;9.90;99.90;;;;;;5032403;28;20403;-63
2023/10/25 01:55:11;;;;;;;20.40;15.17;;;10.00;99.90;;;;;;5032292;28;20353;-63
2023/10/25 01:57:36;;;;;;;21.77;15.37;;;10.00;99.90;;;;;;5032982;28;20196;-63
2023/10/25 02:00:03;;;;;;;18.13;14.53;;;10.00;99.90;;;;;;5036143;28;20175;-63
2023/10/25 02:02:29;;;;;;;20.93;15.80;;;10.00;99.90;;;;;;5054751;28;20246;-63
2023/10/25 02:04:55;;;;;;;23.40;17.13;;;9.90;99.90;;;;;;5055835;28;20749;-63
2023/10/25 02:07:21;;;;;;;20.20;15.53;;;10.00;99.90;;;;;;5055627;28;20424;-64
2023/10/25 02:09:46;;;;;;;22.60;16.00;;;9.90;99.90;;;;;;5055953;28;20155;-64
2023/10/25 02:12:12;;;;;;;24.77;17.90;;;9.90;99.90;;;;;;5056761;28;20159;-63
2023/10/25 02:14:37;;;;;;;25.83;17.30;;;9.80;99.90;;;;;;5055641;28;20214;-63
2023/10/25 02:17:03;;;;;;;22.07;17.80;;;9.80;99.90;;;;;;5056605;28;20225;-63
2023/10/25 02:19:30;;;;;;;22.87;16.70;;;9.80;99.90;;;;;;5056490;28;20693;-63
2023/10/25 02:21:56;;;;;;;24.20;15.87;;;9.80;99.90;;;;;;5056538;28;20372;-63
2023/10/25 02:24:21;;;;;;;28.03;16.87;;;9.80;99.90;;;;;;5056437;28;20484;-63
2023/10/25 02:26:47;;;;;;;20.37;16.00;;;9.70;99.90;;;;;;5043159;28;20250;-63
2023/10/25 02:29:13;;;;;;;27.20;18.50;;;9.70;99.90;;;;;;5034507;28;20199;-63
2023/10/25 02:31:38;;;;;;;22.53;16.50;;;9.70;99.90;;;;;;5036535;28;20255;-63
2023/10/25 02:34:04;;;;;;;48.20;18.10;;;9.60;99.90;;;;;;5036272;28;20628;-63
2023/10/25 02:36:30;;;;;;;22.07;16.70;;;9.60;99.90;;;;;;5039397;28;20189;-78
2023/10/25 02:38:59;;;;;;;27.40;17.27;;;9.60;99.90;;;;;;5036740;28;20420;-64
2023/10/25 02:41:25;;;;;;;28.60;18.37;;;9.60;99.90;;;;;;5036437;28;20932;-63
2023/10/25 02:43:51;;;;;;;28.60;18.37;;;9.60;99.90;;;;;;5036023;28;20463;-63
2023/10/25 02:46:18;;;;;;;29.00;18.93;;;9.60;99.90;;;;;;5035437;28;20180;-64
2023/10/25 02:48:43;;;;;;;28.13;19.33;;;9.60;99.90;;;;;;5035049;28;20439;-63
2023/10/25 02:51:09;;;;;;;36.73;20.47;;;9.70;99.90;;;;;;5035747;28;20967;-63
2023/10/25 02:53:35;;;;;;;34.90;20.43;;;9.70;99.90;;;;;;5036027;28;20524;-63
2023/10/25 02:56:04;;;;;;;35.70;21.00;;;9.70;99.90;;;;;;5035409;28;20472;-63
2023/10/25 02:58:30;;;;;;;28.97;18.57;;;9.70;99.90;;;;;;5035791;28;20762;-63
2023/10/25 03:00:56;;;;;;;29.63;18.67;;;9.70;99.90;;;;;;5034837;28;20381;-65
2023/10/25 03:03:30;;;;;;;34.10;20.07;;;9.70;99.90;;;;;;5035931;28;20373;-63
2023/10/25 03:05:56;;;;;;;30.93;19.00;;;9.70;99.90;;;;;;5037214;28;20496;-63
2023/10/25 03:08:22;;;;;;;30.60;19.90;;;9.70;99.90;;;;;;5055843;28;20477;-63
2023/10/25 03:10:49;;;;;;;33.70;20.60;;;9.70;99.90;;;;;;5054594;28;20204;-63
2023/10/25 03:13:16;;;;;;;35.90;21.90;;;9.70;99.90;;;;;;5055647;28;20368;-63
2023/10/25 03:15:41;;;;;;;32.10;20.67;;;9.70;99.90;;;;;;5053801;28;20202;-63
2023/10/25 03:18:07;;;;;;;35.93;19.33;;;9.70;99.90;;;;;;5055360;28;20491;-64
2023/10/25 03:20:34;;;;;;;37.03;22.20;;;9.70;99.90;;;;;;5055559;28;20587;-63
2023/10/25 03:23:00;;;;;;;36.40;21.30;;;9.70;99.90;;;;;;5054988;28;20805;-63
2023/10/25 03:25:26;;;;;;;32.20;21.53;;;9.70;99.90;;;;;;5052881;28;21016;-63
2023/10/25 03:27:52;;;;;;;39.00;21.53;;;9.70;99.90;;;;;;5055149;28;20451;-63
2023/10/25 03:30:17;;;;;;;40.20;21.23;;;9.70;99.90;;;;;;5054174;28;20270;-63
2023/10/25 03:32:43;;;;;;;36.87;21.87;;;9.80;99.90;;;;;;5055177;28;20795;-63
2023/10/25 03:35:10;;;;;;;45.10;21.20;;;9.80;1.00;;;;;;5054374;28;20209;-64
2023/10/25 03:37:39;;;;;;;33.40;21.00;;;9.80;1.00;;;;;;5054819;28;20452;-63
2023/10/25 03:40:14;;;;;;;32.37;22.03;;;9.80;1.00;;;;;;5054877;28;20399;-64
2023/10/25 03:42:40;;;;;;;36.50;20.90;;;9.80;1.00;;;;;;5054595;28;20467;-63
2023/10/25 03:45:07;;;;;;;32.00;20.80;;;9.80;1.00;;;;;;5054430;28;20874;-63
2023/10/25 03:47:39;;;;;;;35.07;21.63;;;9.80;1.00;;;;;;5053675;28;20465;-64
2023/10/25 03:50:06;;;;;;;33.20;21.10;;;9.90;1.00;;;;;;5048850;28;20466;-63
2023/10/25 03:52:32;;;;;;;32.20;20.80;;;9.90;1.00;;;;;;5035153;28;20468;-64
2023/10/25 03:54:58;;;;;;;38.47;21.03;;;9.90;1.00;;;;;;5033220;28;20495;-63
2023/10/25 03:57:24;;;;;;;34.30;22.33;;;9.80;1.00;;;;;;5034238;28;20199;-63
2023/10/25 03:59:50;;;;;;;38.20;21.30;;;9.90;1.00;;;;;;5034591;28;20251;-63
2023/10/25 04:02:15;;;;;;;39.13;23.13;;;9.80;1.00;;;;;;5034876;28;20415;-63
2023/10/25 04:04:41;;;;;;;33.97;20.90;;;9.80;1.00;;;;;;5032503;28;20257;-63
2023/10/25 04:07:08;;;;;;;25.30;17.70;;;9.80;1.00;;;;;;5048190;28;20194;-63
2023/10/25 04:09:33;;;;;;;31.77;20.70;;;9.80;1.00;;;;;;5054430;28;20167;-63
2023/10/25 04:11:59;;;;;;;31.97;20.83;;;9.80;1.00;;;;;;5054567;28;20857;-63
2023/10/25 04:14:24;;;;;;;31.50;19.80;;;9.80;1.00;;;;;;5052859;28;20170;-63
2023/10/25 04:16:50;;;;;;;39.53;22.80;;;9.80;1.00;;;;;;5053522;28;20191;-64
2023/10/25 04:19:16;;;;;;;30.23;20.57;;;9.80;1.00;;;;;;5052242;28;20228;-63
2023/10/25 04:21:41;;;;;;;33.73;21.57;;;9.80;1.00;;;;;;5054151;28;20171;-64
2023/10/25 04:24:07;;;;;;;30.70;19.70;;;9.80;1.00;;;;;;5054115;28;20178;-63
2023/10/25 04:26:33;;;;;;;30.47;21.13;;;9.80;1.00;;;;;;5052112;28;20194;-63
2023/10/25 04:28:59;;;;;;;34.80;20.73;;;9.80;1.00;;;;;;5053980;28;20419;-63
2023/10/25 04:31:25;;;;;;;33.70;21.60;;;9.70;1.00;;;;;;5054121;28;20175;-63
2023/10/25 04:33:51;;;;;;;34.67;22.40;;;9.70;1.00;;;;;;5053312;28;20595;-64
2023/10/25 04:36:17;;;;;;;37.50;21.73;;;9.70;1.00;;;;;;5052618;28;20460;-63
2023/10/25 04:38:43;;;;;;;31.80;20.93;;;9.70;1.00;;;;;;5041647;28;20230;-63
2023/10/25 04:41:09;;;;;;;38.90;21.20;;;9.70;99.90;;;;;;5033940;28;20505;-63
2023/10/25 04:43:35;;;;;;;39.20;20.73;;;9.60;99.90;;;;;;5033826;28;20470;-63
2023/10/25 04:46:00;;;;;;;38.03;22.70;;;9.60;99.90;;;;;;5033042;28;20415;-64
2023/10/25 04:48:26;;;;;;;39.97;23.30;;;9.60;99.90;;;;;;5033763;28;20251;-63
2023/10/25 04:50:52;;;;;;;37.27;21.77;;;9.70;1.00;;;;;;5033714;28;20171;-63
2023/10/25 04:53:18;;;;;;;32.67;21.70;;;9.60;1.00;;;;;;5033154;28;20213;-62
2023/10/25 04:55:45;;;;;;;37.10;23.67;;;9.60;1.00;;;;;;5033042;28;20560;-63
2023/10/25 04:58:11;;;;;;;33.50;22.00;;;9.60;99.90;;;;;;5033376;28;20199;-63
2023/10/25 05:00:36;;;;;;;35.50;22.87;;;9.60;99.90;;;;;;5033841;28;20439;-63
2023/10/25 05:03:05;;;;;;;35.90;22.37;;;9.60;1.00;;;;;;5032353;28;20179;-63
2023/10/25 05:05:32;;;;;;;33.93;21.87;;;9.60;1.00;;;;;;5032707;28;20176;-63
2023/10/25 05:07:59;;;;;;;41.37;22.70;;;9.60;1.00;;;;;;5033505;28;20413;-66
2023/10/25 05:10:25;;;;;;;38.77;21.00;;;9.60;1.00;;;;;;5033397;28;20418;-63
2023/10/25 05:12:51;;;;;;;36.17;22.17;;;9.60;99.90;;;;;;5031623;28;20417;-63
2023/10/25 05:15:19;;;;;;;35.30;22.00;;;9.60;99.90;;;;;;5032657;28;20772;-63
2023/10/25 05:17:47;;;;;;;38.67;23.60;;;9.60;99.90;;;;;;5033385;28;20466;-63
2023/10/25 05:20:13;;;;;;;40.80;21.47;;;9.60;99.90;;;;;;5033225;28;20427;-63
2023/10/25 05:22:48;;;;;;;40.53;22.67;;;9.60;99.90;;;;;;5033418;28;20399;-63
2023/10/25 05:25:15;;;;;;;38.07;22.03;;;9.60;1.00;;;;;;5032696;28;20455;-63
2023/10/25 05:27:41;;;;;;;38.83;23.70;;;9.60;1.00;;;;;;5032684;28;20404;-63
2023/10/25 05:30:10;;;;;;;37.73;23.43;;;9.60;1.00;;;;;;5032966;28;20412;-63
2023/10/25 05:32:37;;;;;;;36.00;22.70;;;9.60;1.00;;;;;;5033225;28;20780;-63
2023/10/25 05:35:05;;;;;;;40.67;24.20;;;9.60;1.00;;;;;;5032051;28;20395;-63
2023/10/25 05:37:31;;;;;;;35.83;23.63;;;9.60;99.90;;;;;;5033088;28;20431;-63
2023/10/25 05:39:57;;;;;;;35.00;22.40;;;9.60;1.00;;;;;;5032854;28;20393;-63
2023/10/25 05:42:24;;;;;;;36.70;22.30;;;9.70;1.00;;;;;;5031983;28;20376;-63
2023/10/25 05:44:53;;;;;;;36.23;23.03;;;9.70;1.00;;;;;;5030822;28;20563;-63
2023/10/25 05:47:23;;;;;;;37.27;22.57;;;9.60;99.90;;;;;;5032962;28;20525;-67
2023/10/25 05:49:49;;;;;;;44.03;24.10;;;9.60;99.90;;;;;;5032990;28;20384;-63
2023/10/25 05:52:16;;;;;;;42.53;22.53;;;9.70;99.90;;;;;;5032940;28;20828;-65
2023/10/25 05:54:42;;;;;;;37.67;20.97;;;9.60;99.90;;;;;;5032234;28;20405;-63
2023/10/25 05:57:08;;;;;;;37.50;23.03;;;9.60;99.90;;;;;;5032797;28;20496;-63
2023/10/25 05:59:34;;;;;;;42.10;21.93;;;9.70;99.90;;;;;;5032883;28;20429;-63
2023/10/25 06:02:29;;;;;;;37.50;21.57;;;9.70;99.90;;;;;;5033327;28;20457;-63
2023/10/25 06:04:56;;;;;;;40.13;21.97;;;9.70;99.90;;;;;;5030945;28;20442;-63
2023/10/25 06:07:23;;;;;;;34.30;21.17;;;9.70;99.90;;;;;;5032759;28;20484;-63
2023/10/25 06:09:49;;;;;;;31.47;20.93;;;9.60;99.90;;;;;;5032961;28;20406;-63
2023/10/25 06:12:15;;;;;;;38.10;21.17;;;9.60;99.90;;;;;;5032900;28;20505;-63
2023/10/25 06:14:42;;;;;;;35.00;21.30;;;9.60;99.90;;;;;;5035374;28;20401;-64
2023/10/25 06:17:08;;;;;;;37.37;23.57;;;9.60;99.90;;;;;;5052854;28;20469;-63
2023/10/25 06:19:33;;;;;;;33.53;21.10;;;9.70;99.90;;;;;;5052503;28;20463;-63
2023/10/25 06:21:59;;;;;;;33.10;20.93;;;9.70;99.90;;;;;;5051866;28;20531;-63
2023/10/25 06:24:25;;;;;;;39.83;22.60;;;9.60;99.90;;;;;;5052775;28;20174;-64
2023/10/25 06:26:51;;;;;;;37.50;21.87;;;9.70;99.90;;;;;;5052028;28;20226;-64
2023/10/25 06:29:17;;;;;;;35.17;20.87;;;9.70;99.90;;;;;;5052687;28;20552;-63
2023/10/25 06:31:45;;;;;;;39.37;23.73;;;9.60;99.90;;;;;;5051761;28;20415;-64
2023/10/25 06:34:10;;;;;;;35.57;20.90;;;9.60;99.90;;;;;;5052629;28;20520;-63
2023/10/25 06:36:37;;;;;;;39.33;23.03;;;9.60;99.90;;;;;;5051913;28;20399;-63
2023/10/25 06:39:07;;;;;;;36.23;22.80;;;9.60;99.90;;;;;;5052371;28;20562;-63
2023/10/25 06:41:35;;;;;;;39.80;25.07;;;9.60;99.90;;;;;;5051659;28;20368;-64
2023/10/25 06:44:01;;;;;;;34.87;21.60;;;9.60;99.90;;;;;;5052182;28;20405;-63
2023/10/25 06:46:27;;;;;;;34.80;22.27;;;9.60;99.90;;;;;;5051804;28;20398;-63
2023/10/25 06:48:54;;;;;;;37.80;21.23;;;9.60;99.90;;;;;;5037317;28;20413;-64
2023/10/25 06:51:21;;;;;;;34.97;22.03;;;9.60;99.90;;;;;;5035911;28;20384;-63
2023/10/25 06:53:46;;;;;;;35.10;21.67;;;9.70;99.90;;;;;;5036091;28;20776;-63
2023/10/25 06:56:13;;;;;;;37.50;23.17;;;9.70;99.90;;;;;;5035247;28;20434;-63
2023/10/25 06:58:40;;;;;;;41.33;22.93;;;9.70;99.90;;;;;;5035026;28;20515;-63
2023/10/25 07:01:07;;;;;;;30.57;20.37;;;9.60;99.90;;;;;;5035499;28;20475;-64
2023/10/25 07:03:34;;;;;;;33.90;21.00;;;9.60;99.90;;;;;;5035809;28;20813;-63
2023/10/25 07:06:03;;;;;;;41.73;24.40;;;9.60;99.90;;;;;;5035031;28;20504;-63
2023/10/25 07:08:29;;;;;;;36.27;23.80;;;9.70;99.90;;;;;;5035777;28;20493;-63
2023/10/25 07:10:55;;;;;;;37.37;20.93;;;9.70;99.90;;;;;;5035592;28;20381;-65
2023/10/25 07:13:23;;;;;;;48.57;23.27;;;9.70;99.90;;;;;;5035206;28;20385;-63
2023/10/25 07:15:50;;;;;;;38.70;21.20;;;9.80;99.90;;;;;;5034409;28;20385;-65
2023/10/25 07:18:16;;;;;;;36.23;21.07;;;9.80;99.90;;;;;;5034307;28;20432;-63
2023/10/25 07:20:41;;;;;;;35.90;22.60;;;9.80;99.90;;;;;;5035606;28;20391;-63
2023/10/25 07:23:08;;;;;;;31.30;22.03;;;9.80;99.90;;;;;;5034330;28;20183;-63
2023/10/25 07:25:34;;;;;;;35.43;21.57;;;9.80;99.90;;;;;;5034722;28;20250;-63
2023/10/25 07:28:00;;;;;;;37.10;21.97;;;9.90;99.90;;;;;;5035134;28;20901;-63
2023/10/25 07:30:26;;;;;;;37.73;22.50;;;9.90;99.90;;;;;;5035222;28;20442;-63
2023/10/25 07:32:52;;;;;;;38.33;22.73;;;9.90;99.90;;;;;;5035023;28;20435;-63
2023/10/25 07:35:17;;;;;;;35.63;20.20;;;9.80;99.90;;;;;;5033844;28;20172;-64
2023/10/25 07:37:43;;;;;;;32.03;19.30;;;9.80;99.90;;;;;;5035130;28;20286;-63
2023/10/25 07:40:09;;;;;;;36.53;21.67;;;9.80;99.90;;;;;;5033900;28;20704;-63
2023/10/25 07:42:35;;;;;;;33.57;21.33;;;9.90;99.90;;;;;;5035228;28;20167;-63
2023/10/25 07:45:01;;;;;;;35.97;21.93;;;9.90;99.90;;;;;;5034059;28;20549;-63
2023/10/25 07:47:26;;;;;;;40.57;21.90;;;9.90;99.90;;;;;;5034337;28;20253;-64
2023/10/25 07:49:52;;;;;;;34.73;21.60;;;10.00;99.90;;;;;;5034695;28;20261;-63
2023/10/25 07:52:18;;;;;;;34.97;21.93;;;10.10;99.90;;;;;;5034304;28;20167;-63
2023/10/25 07:54:44;;;;;;;34.93;19.67;;;10.10;99.90;;;;;;5033952;28;20679;-63
2023/10/25 07:57:09;;;;;;;34.37;22.50;;;10.10;99.90;;;;;;5032947;28;20196;-64
2023/10/25 07:59:36;;;;;;;36.70;21.80;;;10.10;99.90;;;;;;5034466;28;20624;-63
2023/10/25 08:02:02;;;;;;;42.47;23.80;;;10.10;99.90;;;;;;5033536;28;20266;-63
2023/10/25 08:04:28;;;;;;;39.83;23.07;;;10.10;99.90;;;;;;5034697;28;20377;-63
2023/10/25 08:06:54;;;;;;;35.43;23.77;;;10.20;99.90;;;;;;5048811;28;20465;-63
2023/10/25 08:09:20;;;;;;;30.83;19.70;;;10.20;99.90;;;;;;5054061;28;20193;-64
2023/10/25 08:11:45;;;;;;;39.43;23.03;;;10.20;99.90;;;;;;5054136;28;20471;-63
2023/10/25 08:14:11;;;;;;;40.13;22.10;;;10.20;99.90;;;;;;5054259;28;20483;-63
2023/10/25 08:16:42;;;;;;;38.33;22.30;;;10.30;99.90;;;;;;5053583;28;20277;-63
2023/10/25 08:19:08;;;;;;;37.03;21.90;;;10.30;99.90;;;;;;5054101;28;20202;-63
2023/10/25 08:21:35;;;;;;;36.57;22.00;;;10.30;99.90;;;;;;5054009;28;20413;-63
2023/10/25 08:24:02;;;;;;;36.20;22.07;;;10.30;99.90;;;;;;5054156;28;20402;-63
2023/10/25 08:26:28;;;;;;;36.37;20.60;;;10.40;99.90;;;;;;5053253;28;20431;-64
2023/10/25 08:28:54;;;;;;;42.33;22.60;;;10.40;99.90;;;;;;5053774;28;20429;-64
2023/10/25 08:31:20;;;;;;;33.30;20.70;;;10.40;99.90;;;;;;5054059;28;20866;-63
2023/10/25 08:33:45;;;;;;;39.73;23.60;;;10.50;99.90;;;;;;5054027;28;20877;-64
2023/10/25 08:36:12;;;;;;;37.87;22.17;;;10.50;99.90;;;;;;5053166;28;20760;-63
2023/10/25 08:38:38;;;;;;;34.83;22.23;;;10.60;99.90;;;;;;5054063;28;20700;-63
2023/10/25 08:41:07;;;;;;;35.97;21.97;;;10.60;99.90;;;;;;5052988;28;20409;-63
2023/10/25 08:43:34;;;;;;;35.20;21.43;;;10.60;99.90;;;;;;5053582;28;20448;-62
2023/10/25 08:46:03;;;;;;;32.70;20.23;;;10.70;99.90;;;;;;5051301;28;20927;-63
2023/10/25 08:48:29;;;;;;;37.83;23.00;;;10.70;99.90;;;;;;5052218;28;20418;-63
2023/10/25 08:50:55;;;;;;;34.77;21.57;;;10.70;99.90;;;;;;5040508;28;20502;-63
2023/10/25 08:53:26;;;;;;;35.43;21.87;;;10.70;99.90;;;;;;5046799;28;20373;-63
2023/10/25 08:55:53;;;;;;;39.43;22.93;;;10.80;99.90;;;;;;5052726;28;20392;-63
2023/10/25 08:58:20;;;;;;;41.37;23.00;;;10.80;99.90;;;;;;5052314;28;20821;-63
2023/10/25 09:00:47;;;;;;;32.53;20.37;;;10.80;99.90;;;;;;5053449;28;20376;-63
2023/10/25 09:03:33;;;;;;;38.60;20.10;;;10.80;99.90;;;;;;5053110;28;20382;-64
2023/10/25 09:06:04;;;;;;;36.70;21.03;;;10.90;99.90;;;;;;5050931;28;20431;-64
2023/10/25 09:08:31;;;;;;;36.97;21.30;;;10.80;99.90;;;;;;5052213;28;20429;-63
2023/10/25 09:10:57;;;;;;;33.00;21.00;;;10.90;99.90;;;;;;5053717;28;20460;-62
2023/10/25 09:13:24;;;;;;;30.90;19.90;;;10.90;99.90;;;;;;5053454;28;20476;-63
2023/10/25 09:15:50;;;;;;;39.03;22.10;;;10.90;99.90;;;;;;5052734;28;20421;-63
2023/10/25 09:18:16;;;;;;;32.30;21.50;;;11.00;99.90;;;;;;5053115;28;20564;-63
2023/10/25 09:20:48;;;;;;;37.20;21.33;;;11.00;99.90;;;;;;5052827;28;20475;-63
2023/10/25 09:23:15;;;;;;;30.50;19.30;;;10.90;99.90;;;;;;5052775;28;20166;-62
2023/10/25 09:25:41;;;;;;;34.73;23.70;;;11.00;99.90;;;;;;5052824;28;20376;-63
2023/10/25 09:28:27;;;;;;;34.00;20.23;;;11.00;99.90;;;;;;5053279;28;20395;-63
2023/10/25 09:30:55;;;;;;;30.57;20.07;;;11.00;99.90;;;;;;5053158;28;20170;-63
2023/10/25 09:33:21;;;;;;;38.47;20.80;;;11.00;99.90;;;;;;5053067;28;20387;-62
2023/10/25 09:35:46;;;;;;;34.93;21.50;;;11.00;99.90;;;;;;5051284;28;20544;-63
2023/10/25 09:38:12;;;;;;;30.60;19.87;;;11.00;99.90;;;;;;5053069;28;20419;-64
2023/10/25 09:40:41;;;;;;;32.80;20.90;;;11.10;99.90;;;;;;5052344;28;20174;-66
2023/10/25 09:43:15;;;;;;;33.57;20.80;;;11.10;99.90;;;;;;5052766;28;20174;-63
2023/10/25 09:45:43;;;;;;;35.83;20.70;;;11.20;99.90;;;;;;5052322;28;20383;-63
2023/10/25 09:48:13;;;;;;;29.07;19.87;;;11.30;99.90;;;;;;5053202;28;20758;-63
2023/10/25 09:50:46;;;;;;;33.13;18.57;;;11.30;99.90;;;;;;5051663;28;20448;-63
2023/10/25 09:53:20;;;;;;;30.13;19.07;;;11.40;99.90;;;;;;5053037;28;20406;-63
2023/10/25 09:55:54;;;;;;;29.30;18.57;;;11.50;99.90;;;;;;5051261;28;20475;-63
2023/10/25 09:58:22;;;;;;;26.03;18.73;;;11.50;99.90;;;;;;5050725;28;20439;-66
2023/10/25 10:00:48;;;;;;;29.23;18.23;;;11.60;99.90;;;;;;5051630;28;20384;-63
2023/10/25 10:03:30;;;;;;;31.30;18.60;;;11.50;99.90;;;;;;5053042;28;20406;-63
2023/10/25 10:06:19;;;;;;;28.23;19.17;;;11.40;99.90;;;;;;5052098;28;20429;-63
2023/10/25 10:08:52;;;;;;;30.17;20.40;;;11.40;99.90;;;;;;5052427;28;20395;-63
2023/10/25 10:11:24;;;;;;;28.87;19.03;;;11.30;99.90;;;;;;5052752;28;20478;-63
2023/10/25 10:14:30;;;;;;;33.47;19.50;;;11.40;99.90;;;;;;5052986;28;20379;-63
2023/10/25 10:17:06;;;;;;;27.00;17.40;;;11.50;99.90;;;;;;5050582;28;20424;-63
2023/10/25 10:19:33;;;;;;;35.37;18.60;;;11.50;99.90;;;;;;5051967;28;20456;-63
2023/10/25 10:22:04;;;;;;;26.03;17.77;;;11.50;99.90;;;;;;5056626;28;20466;-62
2023/10/25 10:24:50;;;;;;;27.60;17.50;;;11.50;99.90;;;;;;5056274;28;20379;-73
2023/10/25 10:27:25;;;;;;;32.43;17.20;;;11.60;99.90;;;;;;5056357;28;20752;-64
2023/10/25 10:29:51;;;;;;;28.00;17.23;;;11.60;99.90;;;;;;5056419;28;20399;-63
2023/10/25 10:32:18;;;;;;;27.30;17.30;;;11.60;99.90;;;;;;5056686;28;20769;-63
2023/10/25 10:34:56;;;;;;;27.17;17.43;;;11.60;99.90;;;;;;5054943;28;20174;-64
2023/10/25 10:37:24;;;;;;;26.13;16.87;;;11.60;99.90;;;;;;5056025;28;20459;-63
2023/10/25 10:39:56;;;;;;;27.07;17.53;;;11.70;99.90;;;;;;5056202;28;20805;-64
2023/10/25 10:42:29;;;;;;;24.80;15.97;;;11.80;99.90;;;;;;5055607;28;20941;-68
2023/10/25 10:44:58;;;;;;;26.60;16.60;;;11.90;99.90;;;;;;5053372;28;20401;-64
2023/10/25 10:47:37;;;;;;;27.20;16.27;;;12.00;99.90;;;;;;5051600;28;20768;-65
2023/10/25 10:50:19;;;;;;;25.90;17.67;;;12.00;99.90;;;;;;5055704;28;20752;-63
2023/10/25 10:52:46;;;;;;;27.97;15.80;;;12.00;87.60;;;;;;5054448;28;20403;-67
2023/10/25 10:55:17;;;;;;;30.30;17.57;;;12.20;85.90;;;;;;5054595;28;20376;-63
2023/10/25 10:57:44;;;;;;;26.97;17.00;;;12.50;92.40;;;;;;5055655;28;20445;-63
2023/10/25 11:00:13;;;;;;;27.70;16.60;;;12.60;88.70;;;;;;5055869;28;20918;-63
2023/10/25 11:02:43;;;;;;;30.50;16.70;;;12.80;82.60;;;;;;5055890;28;20401;-63
2023/10/25 11:05:09;;;;;;;25.13;16.37;;;13.00;60.00;;;;;;5054794;28;20421;-63
2023/10/25 11:07:35;;;;;;;25.53;16.30;;;13.00;1.00;;;;;;5054377;28;20425;-63
2023/10/25 11:10:00;;;;;;;26.27;16.53;;;13.00;1.00;;;;;;5054390;28;20216;-66
2023/10/25 11:12:26;;;;;;;25.00;18.43;;;12.90;1.00;;;;;;5055323;28;20647;-64
2023/10/25 11:14:52;;;;;;;21.50;15.17;;;12.90;1.00;;;;;;5054711;28;20228;-64
2023/10/25 11:17:19;;;;;;;33.80;17.77;;;12.90;1.00;;;;;;5055375;28;20244;-64
2023/10/25 11:19:48;;;;;;;26.00;14.33;;;12.90;1.00;;;;;;5055484;28;20446;-63
2023/10/25 11:22:14;;;;;;;29.60;16.77;;;12.70;1.00;;;;;;5055746;28;20383;-63
2023/10/25 11:24:40;;;;;;;26.43;16.53;;;12.60;1.00;;;;;;5054655;28;20393;-63
2023/10/25 11:27:06;;;;;;;30.80;17.27;;;12.60;1.00;;;;;;5054176;28;20487;-64
2023/10/25 11:29:33;;;;;;;27.10;16.30;;;12.50;1.00;;;;;;5055034;28;20412;-63
2023/10/25 11:32:06;;;;;;;31.00;15.83;;;12.50;1.00;;;;;;5053762;28;20413;-72
2023/10/25 11:34:33;;;;;;;24.87;16.70;;;12.50;1.00;;;;;;5054565;28;20838;-72
2023/10/25 11:37:00;;;;;;;23.43;14.13;;;12.40;1.00;;;;;;5054951;28;20422;-64
2023/10/25 11:39:30;;;;;;;30.60;17.00;;;12.30;1.00;;;;;;5055113;28;20456;-63
2023/10/25 11:41:57;;;;;;;31.67;17.80;;;12.30;1.00;;;;;;5055320;28;20394;-63
2023/10/25 11:44:23;;;;;;;27.17;16.27;;;12.30;1.00;;;;;;5053540;28;20385;-66
2023/10/25 11:46:51;;;;;;;31.50;18.67;;;12.30;1.00;;;;;;5053460;28;20424;-63
2023/10/25 11:49:19;;;;;;;33.07;17.57;;;12.40;1.00;;;;;;5054896;28;20442;-63
2023/10/25 11:51:47;;;;;;;36.77;18.70;;;12.50;1.00;;;;;;5054956;28;20433;-63
2023/10/25 11:54:13;;;;;;;25.47;17.40;;;12.60;1.00;;;;;;5054681;28;20901;-63
2023/10/25 11:56:39;;;;;;;27.67;15.43;;;12.70;1.00;;;;;;5054141;28;20448;-63
2023/10/25 11:59:05;;;;;;;24.80;15.73;;;12.70;1.00;;;;;;5054645;28;20928;-63
2023/10/25 12:01:31;;;;;;;32.63;16.80;;;12.60;1.00;;;;;;5054573;28;20451;-64
2023/10/25 12:03:57;;;;;;;24.27;16.33;;;12.50;1.00;;;;;;5054495;28;20846;-63
2023/10/25 12:06:24;;;;;;;31.50;16.73;;;12.40;1.00;;;;;;5052056;28;20207;-63
2023/10/25 12:08:50;;;;;;;26.50;17.33;;;12.30;1.00;;;;;;5054750;28;20166;-63
2023/10/25 12:11:15;;;;;;;31.07;15.97;;;12.30;1.00;;;;;;5054537;28;20384;-74
2023/10/25 12:13:42;;;;;;;30.23;18.57;;;12.30;1.00;;;;;;5054141;28;20623;-63
2023/10/25 12:16:09;;;;;;;25.73;18.17;;;12.30;1.00;;;;;;5052424;28;20696;-63
2023/10/25 12:18:36;;;;;;;23.63;15.43;;;12.30;1.00;;;;;;5053142;28;20455;-63
2023/10/25 12:21:06;;;;;;;25.37;16.33;;;12.30;1.00;;;;;;5054350;28;20968;-63
2023/10/25 12:23:35;;;;;;;29.60;15.50;;;12.30;1.00;;;;;;5052190;28;20785;-64
2023/10/25 12:26:01;;;;;;;28.73;18.20;;;12.30;1.00;;;;;;5053153;28;20410;-64
2023/10/25 12:28:27;;;;;;;28.27;17.40;;;12.40;1.00;;;;;;5054211;28;20797;-63
2023/10/25 12:30:53;;;;;;;25.73;17.10;;;12.40;1.00;;;;;;5053900;28;20194;-63
2023/10/25 12:33:19;;;;;;;26.73;17.43;;;12.50;1.00;;;;;;5053894;28;20179;-63
2023/10/25 12:35:45;;;;;;;26.67;17.80;;;12.60;1.00;;;;;;5051981;28;20406;-63